Time;durP1;ratioP1;P1;durP2;ratioP2;P2;SDS_P1;SDS_P2;PMS_P1;PMS_P2;Temp;Humidity;BMP_temperature;BMP_pressure;BME280_temperature;BME280_humidity;BME280_pressure;Samples;Min_cycle;Max_cycle;Signal;HPM_P1;HPM_P2
2023/10/13 00:02:14;;;;;;;3.40;2.35;;;;;;;10.31;93.83;95108.75;5053767;28;20532;-76
2023/10/13 00:04:42;;;;;;;3.60;2.28;;;;;;;10.32;93.71;95107.66;5050163;28;20314;-76
2023/10/13 00:07:09;;;;;;;3.83;2.17;;;;;;;10.26;93.81;95100.75;5050537;28;20583;-75
2023/10/13 00:09:38;;;;;;;2.78;1.60;;;;;;;10.28;93.69;95106.66;5049841;28;20234;-75
2023/10/13 00:12:09;;;;;;;3.35;2.17;;;;;;;10.27;93.70;95105.06;5050654;28;20211;-76
2023/10/13 00:14:37;;;;;;;5.28;2.75;;;;;;;10.23;93.75;95098.72;5050079;28;20602;-75
2023/10/13 00:17:07;;;;;;;4.03;2.92;;;;;;;10.15;93.87;95102.13;5050219;28;20241;-76
2023/10/13 00:19:45;;;;;;;3.50;2.50;;;;;;;10.16;94.37;95092.91;5049825;28;20196;-76
2023/10/13 00:22:15;;;;;;;3.10;2.05;;;;;;;10.14;94.48;95095.13;5054186;28;20203;-76
2023/10/13 00:24:46;;;;;;;3.00;1.92;;;;;;;10.17;93.45;95094.50;5050336;28;20226;-76
2023/10/13 00:27:29;;;;;;;2.95;1.98;;;;;;;10.22;92.58;95092.50;5050334;28;20265;-76
2023/10/13 00:32:40;;;;;;;3.60;2.17;;;;;;;10.12;92.28;95102.75;5048427;28;20215;-76
2023/10/13 00:35:11;;;;;;;2.95;1.80;;;;;;;10.07;92.55;95097.50;5058498;28;20206;-76
2023/10/13 00:37:44;;;;;;;2.38;1.73;;;;;;;10.01;92.56;95099.53;5053901;28;20752;-76
2023/10/13 00:40:25;;;;;;;0.20;0.20;;;;;;;9.98;92.45;95098.25;5053834;28;20227;-75
2023/10/13 00:42:54;;;;;;;0.20;0.20;;;;;;;9.99;91.78;95110.66;5056603;28;20735;-75
2023/10/13 00:45:20;;;;;;;0.73;0.65;;;;;;;9.83;92.37;95104.09;5056260;28;20208;-76
2023/10/13 00:47:56;;;;;;;0.20;0.20;;;;;;;9.86;92.38;95105.34;5053586;28;20566;-76
2023/10/13 00:50:25;;;;;;;0.30;0.30;;;;;;;9.85;92.10;95109.16;5053685;28;20634;-76
2023/10/13 00:52:51;;;;;;;0.60;0.60;;;;;;;9.87;92.15;95112.34;5053865;28;20200;-76
2023/10/13 00:55:23;;;;;;;0.20;0.20;;;;;;;9.83;91.98;95112.19;5053881;28;20210;-75
2023/10/13 00:57:53;;;;;;;0.22;0.22;;;;;;;9.81;91.99;95109.00;5048272;28;20200;-75
2023/10/13 01:00:24;;;;;;;0.38;0.38;;;;;;;9.77;92.32;95107.22;5053453;28;20200;-75
2023/10/13 01:02:55;;;;;;;0.90;0.65;;;;;;;9.76;92.46;95111.81;5057447;28;20269;-75
2023/10/13 01:05:24;;;;;;;0.50;0.50;;;;;;;9.70;93.46;95109.56;5056429;28;20631;-75
2023/10/13 01:07:52;;;;;;;0.68;0.68;;;;;;;9.65;93.78;95110.50;5050140;28;20210;-75
2023/10/13 01:10:20;;;;;;;0.98;0.55;;;;;;;9.69;94.03;95099.88;5053240;28;20207;-76
2023/10/13 01:12:47;;;;;;;0.20;0.20;;;;;;;9.66;94.49;95095.06;5053478;28;20617;-76
2023/10/13 01:15:20;;;;;;;0.70;0.70;;;;;;;9.65;94.63;95099.69;5053508;28;20211;-75
2023/10/13 01:17:47;;;;;;;0.20;0.20;;;;;;;9.63;94.13;95107.31;5052962;28;20224;-77
2023/10/13 01:20:20;;;;;;;0.30;0.30;;;;;;;9.63;93.78;95112.72;5054728;28;20314;-76
2023/10/13 01:22:55;;;;;;;0.15;0.15;;;;;;;9.59;94.08;95111.72;5053578;28;20242;-76
2023/10/13 01:25:25;;;;;;;0.30;0.30;;;;;;;9.72;94.21;95105.44;5052794;28;20207;-77
2023/10/13 01:27:52;;;;;;;0.77;0.77;;;;;;;9.62;94.66;95111.09;5037373;28;20278;-77
2023/10/13 01:30:24;;;;;;;2.72;1.17;;;;;;;9.56;95.22;95109.66;5053508;28;20200;-77
2023/10/13 01:32:51;;;;;;;0.30;0.30;;;;;;;9.51;95.71;95112.47;5053330;28;20195;-77
2023/10/13 01:35:24;;;;;;;0.65;0.63;;;;;;;9.48;95.09;95104.97;5053313;28;20541;-77
2023/10/13 01:37:50;;;;;;;3.80;2.15;;;;;;;9.52;95.70;95105.97;5059473;28;20582;-77
2023/10/13 01:40:19;;;;;;;0.32;0.32;;;;;;;9.52;95.40;95111.38;5053095;28;20219;-77
2023/10/13 01:42:52;;;;;;;3.13;1.08;;;;;;;9.41;95.36;95107.31;5058910;28;20203;-77
2023/10/13 01:45:20;;;;;;;0.25;0.25;;;;;;;9.29;95.83;95123.31;5054030;28;20341;-78
2023/10/13 01:47:50;;;;;;;1.40;1.00;;;;;;;9.24;96.30;95119.63;5052712;28;20215;-78
2023/10/13 01:50:20;;;;;;;1.90;1.45;;;;;;;9.37;96.31;95126.06;5052939;28;20242;-77
2023/10/13 01:52:47;;;;;;;3.10;2.05;;;;;;;9.41;95.76;95115.44;5054521;28;20562;-77
2023/10/13 01:55:14;;;;;;;2.67;1.98;;;;;;;9.43;95.45;95118.63;5052596;28;20203;-77
2023/10/13 01:57:46;;;;;;;0.30;0.22;;;;;;;9.41;95.65;95121.66;5052626;28;20294;-77
2023/10/13 02:00:18;;;;;;;0.85;0.85;;;;;;;9.39;94.91;95121.16;5052333;28;20239;-77
2023/10/13 02:02:45;;;;;;;0.20;0.20;;;;;;;9.35;94.31;95105.84;5051260;28;20563;-77
2023/10/13 02:05:15;;;;;;;1.85;0.75;;;;;;;9.27;94.75;95105.50;5055996;28;20307;-77
2023/10/13 02:07:45;;;;;;;0.57;0.57;;;;;;;9.29;95.50;95104.38;5052161;28;20214;-77
2023/10/13 02:10:12;;;;;;;1.05;1.00;;;;;;;9.29;95.35;95104.38;5052247;28;20243;-77
2023/10/13 02:12:43;;;;;;;0.20;0.20;;;;;;;9.26;95.75;95101.19;5048724;28;20630;-77
2023/10/13 02:15:12;;;;;;;0.88;0.88;;;;;;;9.34;95.71;95094.22;5052336;28;20325;-77
2023/10/13 02:17:44;;;;;;;0.20;0.20;;;;;;;9.36;95.38;95091.22;5051222;28;20277;-77
2023/10/13 02:20:14;;;;;;;0.22;0.22;;;;;;;9.27;95.70;95102.00;5054291;28;20200;-77
2023/10/13 02:22:48;;;;;;;0.50;0.50;;;;;;;9.32;95.38;95098.34;5054341;28;20356;-78
2023/10/13 02:25:17;;;;;;;0.60;0.60;;;;;;;9.29;95.44;95096.28;5049537;28;20233;-77
2023/10/13 02:27:48;;;;;;;0.30;0.30;;;;;;;9.34;95.26;95098.84;5050307;28;20195;-77
2023/10/13 02:30:14;;;;;;;0.68;0.68;;;;;;;9.33;95.33;95105.34;5048326;28;20249;-78
2023/10/13 02:32:43;;;;;;;0.20;0.20;;;;;;;9.25;95.52;95102.28;5054409;28;20196;-78
2023/10/13 02:35:15;;;;;;;0.40;0.40;;;;;;;9.24;95.69;95108.81;5051737;28;20233;-77
2023/10/13 02:37:44;;;;;;;0.98;0.98;;;;;;;9.22;95.80;95102.91;5055442;28;20196;-77
2023/10/13 02:40:11;;;;;;;0.55;0.50;;;;;;;9.24;96.22;95106.09;5053487;28;20228;-77
2023/10/13 02:42:38;;;;;;;1.10;0.50;;;;;;;9.27;95.80;95102.78;5059800;28;20555;-77
2023/10/13 02:45:07;;;;;;;0.50;0.50;;;;;;;9.21;96.29;95106.69;5058475;28;20633;-78
2023/10/13 02:47:34;;;;;;;2.42;1.55;;;;;;;9.29;96.24;95112.50;5052076;28;20226;-77
2023/10/13 02:50:11;;;;;;;3.15;2.10;;;;;;;9.25;96.13;95115.81;5047805;28;20215;-78
2023/10/13 02:52:41;;;;;;;2.92;1.83;;;;;;;9.25;96.29;95112.31;5054162;28;20566;-78
2023/10/13 02:55:09;;;;;;;2.03;1.60;;;;;;;9.18;95.79;95123.53;5051531;28;20199;-77
2023/10/13 02:57:36;;;;;;;3.67;1.45;;;;;;;9.03;96.64;95121.19;5050406;28;20265;-77
2023/10/13 03:00:12;;;;;;;3.83;2.05;;;;;;;9.08;95.43;95134.59;5051242;28;20635;-77
2023/10/13 03:02:44;;;;;;;3.13;2.13;;;;;;;8.95;95.55;95135.41;5047934;28;20361;-77
2023/10/13 03:05:13;;;;;;;3.33;2.25;;;;;;;9.02;95.88;95135.78;5053987;28;20306;-77
2023/10/13 03:07:43;;;;;;;1.98;1.52;;;;;;;9.05;95.70;95139.78;5050761;28;20203;-77
2023/10/13 03:10:09;;;;;;;0.55;0.55;;;;;;;9.06;95.61;95125.97;5050962;28;20654;-77
2023/10/13 03:12:37;;;;;;;0.20;0.20;;;;;;;9.08;95.22;95129.19;5049513;28;20203;-77
2023/10/13 03:15:13;;;;;;;0.30;0.30;;;;;;;9.13;95.01;95123.66;5048854;28;20246;-77
2023/10/13 03:17:43;;;;;;;0.30;0.30;;;;;;;9.00;94.98;95135.31;5054808;28;20619;-77
2023/10/13 03:20:13;;;;;;;0.38;0.38;;;;;;;8.98;94.97;95129.41;5066878;28;20199;-77
2023/10/13 03:22:39;;;;;;;0.30;0.30;;;;;;;8.92;96.00;95141.44;5051250;28;20286;-77
2023/10/13 03:25:09;;;;;;;0.32;0.32;;;;;;;8.95;96.32;95140.81;5049327;28;20318;-77
2023/10/13 03:28:00;;;;;;;0.63;0.63;;;;;;;8.97;96.10;95138.63;5059212;28;20201;-77
2023/10/13 03:30:35;;;;;;;0.20;0.20;;;;;;;8.92;96.38;95136.03;5046511;28;20576;-77
2023/10/13 03:33:06;;;;;;;0.73;0.68;;;;;;;8.93;96.75;95137.63;5049787;28;20199;-77
2023/10/13 03:35:41;;;;;;;0.52;0.52;;;;;;;8.94;96.88;95138.44;5050076;28;20231;-77
2023/10/13 03:38:18;;;;;;;0.30;0.30;;;;;;;9.01;96.91;95128.81;5057387;28;20194;-78
2023/10/13 03:41:06;;;;;;;1.05;1.05;;;;;;;9.05;97.04;95135.19;5045607;28;20314;-78
2023/10/13 03:43:44;;;;;;;0.45;0.45;;;;;;;9.03;97.17;95123.88;5047467;28;20286;-78
2023/10/13 03:46:12;;;;;;;1.48;1.38;;;;;;;8.96;96.66;95110.00;5043147;28;20244;-78
2023/10/13 03:48:52;;;;;;;0.63;0.63;;;;;;;8.98;96.99;95115.91;5053209;28;20306;-78
2023/10/13 03:51:21;;;;;;;0.65;0.60;;;;;;;9.06;97.20;95109.75;5064500;28;20206;-78
2023/10/13 03:53:53;;;;;;;4.10;2.40;;;;;;;8.95;97.34;95108.41;5070617;28;20416;-79
2023/10/13 03:56:28;;;;;;;4.75;2.47;;;;;;;8.89;97.59;95101.50;5069053;28;20260;-79
2023/10/13 03:58:58;;;;;;;0.47;0.47;;;;;;;8.99;98.22;95092.38;5060582;28;20199;-78
2023/10/13 04:01:31;;;;;;;0.20;0.20;;;;;;;8.94;98.76;95084.38;5053529;28;20207;-77
2023/10/13 04:04:03;;;;;;;0.63;0.43;;;;;;;9.03;99.24;95094.16;5070768;28;20540;-78
2023/10/13 04:17:28;;;;;;;0.75;0.75;;;;;;;9.19;96.53;95090.00;5055119;28;20262;-78
2023/10/13 04:25:35;;;;;;;0.25;0.25;;;;;;;9.10;95.83;95099.16;5050180;28;20238;-78
2023/10/13 04:28:15;;;;;;;0.30;0.30;;;;;;;9.10;95.36;95116.16;5038580;28;20234;-78
2023/10/13 04:30:57;;;;;;;0.43;0.43;;;;;;;9.09;95.55;95109.16;5064247;28;20264;-78
2023/10/13 04:33:35;;;;;;;2.33;1.88;;;;;;;9.08;95.85;95107.56;5050238;28;20207;-78
2023/10/13 04:36:13;;;;;;;2.88;2.30;;;;;;;9.14;95.20;95117.16;5050257;28;20202;-78
2023/10/13 04:38:56;;;;;;;6.68;3.47;;;;;;;9.12;94.89;95108.56;5066693;28;20214;-78
2023/10/13 04:41:24;;;;;;;10.27;6.15;;;;;;;9.22;94.83;95119.13;5057190;28;20279;-78
2023/10/13 04:44:04;;;;;;;11.07;5.75;;;;;;;9.24;94.58;95119.63;5050795;28;20250;-77
2023/10/13 04:46:54;;;;;;;4.57;2.85;;;;;;;9.18;95.06;95122.72;5049851;28;20253;-78
2023/10/13 04:49:28;;;;;;;9.38;5.30;;;;;;;9.20;94.69;95124.03;5048127;28;20206;-80
2023/10/13 04:51:58;;;;;;;8.75;3.95;;;;;;;9.32;95.29;95128.06;5051210;28;20602;-78
2023/10/13 04:54:33;;;;;;;7.07;3.38;;;;;;;9.47;94.75;95125.81;5049458;28;20191;-79
2023/10/13 05:02:55;;;;;;;13.25;3.25;;;;;;;10.92;92.03;95142.22;5050099;28;20211;-78
2023/10/13 05:05:45;;;;;;;7.13;3.63;;;;;;;12.01;87.94;95140.91;5039715;28;20226;-78
2023/10/13 05:46:49;;;;;;;0.88;0.88;;;;;;;19.19;58.78;95148.84;5054357;28;20211;-80
2023/10/13 05:49:40;;;;;;;4.95;2.78;;;;;;;18.51;60.42;95155.13;5059229;28;20314;-79
2023/10/13 06:28:40;;;;;;;0.80;0.80;;;;;;;19.30;58.19;95151.72;5052638;28;20200;-79
2023/10/13 06:30:57;;;;;;;0.75;0.75;;;;;;;20.83;51.54;95168.16;5070372;28;20202;-79
2023/10/13 06:33:28;;;;;;;1.05;0.80;;;;;;;20.81;51.15;95171.28;5071990;28;20675;-80
2023/10/13 06:35:57;;;;;;;1.48;1.00;;;;;;;21.12;50.36;95167.22;5052818;28;20188;-81
2023/10/13 06:38:24;;;;;;;5.57;2.22;;;;;;;20.49;51.82;95168.25;5065852;28;20428;-78
2023/10/13 06:40:52;;;;;;;1.15;1.05;;;;;;;20.39;52.22;95174.41;5072016;28;20230;-78
2023/10/13 06:43:21;;;;;;;3.88;2.15;;;;;;;20.09;52.67;95187.41;5065766;28;20214;-78
2023/10/13 06:45:56;;;;;;;1.25;1.15;;;;;;;20.28;52.46;95176.22;5052053;28;20223;-78
2023/10/13 06:48:26;;;;;;;3.40;2.33;;;;;;;20.03;53.04;95178.69;5054708;28;20203;-79
2023/10/13 06:50:55;;;;;;;3.90;2.83;;;;;;;19.52;53.86;95181.16;5071474;28;20268;-79
2023/10/13 06:53:24;;;;;;;5.15;2.85;;;;;;;19.67;53.36;95177.44;5071636;28;20725;-78
2023/10/13 06:55:58;;;;;;;4.85;2.83;;;;;;;19.06;55.05;95175.72;5072265;28;20607;-78
2023/10/13 06:58:25;;;;;;;3.53;2.42;;;;;;;18.67;56.16;95177.81;5071513;28;20662;-79
2023/10/13 07:00:55;;;;;;;4.32;2.47;;;;;;;18.56;57.04;95173.25;5072124;28;20207;-78
2023/10/13 07:03:24;;;;;;;6.00;2.97;;;;;;;17.63;60.26;95187.88;5052807;28;20226;-78
2023/10/13 07:05:53;;;;;;;5.68;2.90;;;;;;;17.28;61.06;95176.09;5051779;28;20231;-79
2023/10/13 07:08:20;;;;;;;6.70;3.30;;;;;;;17.62;61.01;95163.56;5051894;28;20218;-78
2023/10/13 07:11:01;;;;;;;6.05;3.35;;;;;;;17.74;60.99;95161.50;5065223;28;20211;-78
2023/10/13 07:13:30;;;;;;;2.67;2.42;;;;;;;17.48;61.95;95163.25;5050420;28;20203;-78
2023/10/13 07:16:00;;;;;;;2.35;1.45;;;;;;;17.10;62.96;95159.25;5068160;28;20678;-78
2023/10/13 07:18:35;;;;;;;0.65;0.65;;;;;;;17.42;62.25;95170.94;5071529;28;20293;-78
2023/10/13 07:21:09;;;;;;;1.17;0.73;;;;;;;17.54;61.55;95164.53;5071596;28;20214;-78
2023/10/13 07:23:37;;;;;;;1.20;1.05;;;;;;;17.43;62.26;95172.53;5071199;28;20213;-78
2023/10/13 07:26:05;;;;;;;0.50;0.50;;;;;;;17.29;62.70;95177.69;5065244;28;20224;-78
2023/10/13 07:28:35;;;;;;;1.52;1.08;;;;;;;16.93;63.08;95182.34;5051472;28;20215;-78
2023/10/13 07:31:12;;;;;;;1.05;1.00;;;;;;;17.14;63.42;95173.03;5038966;28;20279;-78
2023/10/13 07:33:40;;;;;;;1.75;1.08;;;;;;;17.39;62.89;95166.97;5066992;28;20533;-78
2023/10/13 07:36:18;;;;;;;2.17;1.77;;;;;;;17.58;62.16;95168.97;5053509;28;20568;-78
2023/10/13 07:38:59;;;;;;;4.25;2.72;;;;;;;17.83;60.94;95169.50;5065804;28;20511;-78
2023/10/13 07:41:30;;;;;;;3.30;2.33;;;;;;;18.39;59.76;95158.06;5071589;28;20202;-78
2023/10/13 07:43:59;;;;;;;3.22;2.50;;;;;;;18.00;60.18;95160.84;5064763;28;20265;-78
2023/10/13 07:46:31;;;;;;;5.10;3.17;;;;;;;18.21;60.18;95152.25;5064497;28;20363;-78
2023/10/13 07:49:08;;;;;;;1.15;0.95;;;;;;;18.13;59.82;95156.00;5071020;28;20211;-78
2023/10/13 07:51:44;;;;;;;0.95;0.88;;;;;;;18.27;59.16;95150.78;5055424;28;20667;-78
2023/10/13 07:54:13;;;;;;;1.20;0.90;;;;;;;18.24;59.51;95153.47;5051526;28;20234;-77
2023/10/13 07:56:40;;;;;;;1.02;0.93;;;;;;;18.27;59.28;95147.25;5051093;28;20211;-78
2023/10/13 07:59:09;;;;;;;0.38;0.38;;;;;;;18.29;59.26;95140.25;5051084;28;20625;-78
2023/10/13 08:01:36;;;;;;;0.85;0.80;;;;;;;18.31;58.84;95140.66;5050607;28;20207;-79
2023/10/13 08:04:11;;;;;;;1.38;1.13;;;;;;;18.74;57.83;95141.44;5049360;28;20211;-79
2023/10/13 08:06:42;;;;;;;1.80;1.35;;;;;;;18.66;57.65;95140.53;5070039;28;20254;-77
2023/10/13 08:09:29;;;;;;;0.90;0.90;;;;;;;18.79;57.56;95138.41;5057775;28;20520;-78
2023/10/13 08:11:57;;;;;;;0.75;0.75;;;;;;;19.10;56.66;95132.63;5059930;28;20248;-78
2023/10/13 08:14:28;;;;;;;1.35;1.25;;;;;;;19.17;56.04;95134.69;5070642;28;20219;-78
2023/10/13 08:16:59;;;;;;;5.72;2.63;;;;;;;19.87;54.60;95139.59;5070436;28;20218;-77
2023/10/13 08:19:28;;;;;;;4.40;2.85;;;;;;;20.26;53.37;95131.78;5070344;28;20219;-77
2023/10/13 08:22:16;;;;;;;3.42;2.42;;;;;;;20.16;53.14;95143.47;5070822;28;20219;-77
2023/10/13 08:24:58;;;;;;;3.65;2.22;;;;;;;20.20;53.31;95139.59;5070489;28;20529;-79
2023/10/13 08:27:34;;;;;;;3.85;2.75;;;;;;;20.24;53.57;95142.38;5057250;28;20214;-77
2023/10/13 08:32:54;;;;;;;3.75;2.35;;;;;;;19.46;55.33;95155.13;5045590;28;20574;-78
2023/10/13 08:35:33;;;;;;;3.30;2.17;;;;;;;19.34;56.36;95163.56;5068127;28;20213;-77
2023/10/13 08:38:13;;;;;;;5.18;3.33;;;;;;;19.37;57.27;95157.34;5060372;28;20659;-78
2023/10/13 08:43:45;;;;;;;4.97;2.60;;;;;;;20.65;53.66;95132.19;5066484;28;20203;-79
2023/10/13 08:46:27;;;;;;;3.63;2.75;;;;;;;21.09;52.69;95129.41;5050613;28;20619;-78
2023/10/13 08:49:09;;;;;;;6.03;2.85;;;;;;;21.45;51.95;95135.22;5057769;28;20302;-78
2023/10/13 08:51:45;;;;;;;5.47;3.13;;;;;;;21.27;51.17;95135.88;5067903;28;20684;-78
2023/10/13 08:54:33;;;;;;;5.78;3.22;;;;;;;20.78;52.62;95127.19;5050764;28;20558;-80
2023/10/13 08:57:19;;;;;;;6.72;3.13;;;;;;;20.58;53.51;95132.94;5054853;28;20206;-82
2023/10/13 08:59:55;;;;;;;5.88;3.08;;;;;;;20.27;53.56;95133.38;5052528;28;20204;-77
2023/10/13 09:02:59;;;;;;;5.20;3.50;;;;;;;20.38;53.32;95134.28;5054286;28;20286;-76
2023/10/13 09:05:41;;;;;;;7.20;4.13;;;;;;;20.44;52.96;95140.25;5053856;28;20246;-76
2023/10/13 09:08:07;;;;;;;8.73;3.55;;;;;;;20.71;52.98;95129.91;5054039;28;20208;-82
2023/10/13 09:10:44;;;;;;;6.63;3.40;;;;;;;21.04;51.39;95127.03;5054067;28;20208;-78
2023/10/13 09:13:20;;;;;;;5.80;3.05;;;;;;;21.03;51.76;95133.72;5054227;28;20226;-76
2023/10/13 09:16:01;;;;;;;6.63;3.72;;;;;;;21.15;50.79;95127.91;5054039;28;20200;-77
2023/10/13 09:18:46;;;;;;;7.03;3.75;;;;;;;21.32;51.24;95125.69;5053534;28;20778;-75
2023/10/13 09:21:47;;;;;;;6.88;3.83;;;;;;;21.53;50.42;95128.56;5053573;28;20203;-75
2023/10/13 09:24:18;;;;;;;5.47;3.78;;;;;;;21.95;48.93;95119.69;5053967;28;20560;-75
2023/10/13 09:26:47;;;;;;;5.00;3.33;;;;;;;21.91;48.69;95119.69;5053281;28;20331;-76
2023/10/13 09:29:19;;;;;;;10.45;3.78;;;;;;;22.02;49.44;95119.75;5053723;28;20203;-76
2023/10/13 09:31:59;;;;;;;7.65;3.50;;;;;;;22.33;48.41;95108.00;5053087;28;20207;-76
2023/10/13 09:34:29;;;;;;;5.10;3.45;;;;;;;22.97;nan;95104.53;5053467;28;20248;-77
2023/10/13 09:36:58;;;;;;;5.10;3.08;;;;;;;23.17;46.28;95097.44;5053615;28;20204;-76
2023/10/13 09:39:34;;;;;;;6.97;3.63;;;;;;;23.55;44.83;95097.78;5053255;28;20638;-76
2023/10/13 09:42:03;;;;;;;4.85;3.20;;;;;;;23.46;45.26;95094.63;5053552;28;20614;-77
2023/10/13 09:44:31;;;;;;;5.78;3.28;;;;;;;23.29;44.39;95091.50;5053188;28;20207;-76
2023/10/13 09:47:07;;;;;;;5.85;3.28;;;;;;;23.65;43.61;95091.41;5053203;28;20235;-76
2023/10/13 09:49:46;;;;;;;4.65;3.17;;;;;;;24.12;42.71;95080.97;5052973;28;20211;-76
2023/10/13 09:52:19;;;;;;;3.80;2.60;;;;;;;24.09;42.99;95071.47;5060589;28;20329;-77
2023/10/13 09:55:02;;;;;;;4.78;3.10;;;;;;;23.88;42.22;95077.91;5073191;28;20762;-77
2023/10/13 09:57:44;;;;;;;4.28;2.22;;;;;;;23.71;42.04;95078.78;5062913;28;20294;-77
2023/10/13 10:06:07;;;;;;;3.10;2.22;;;;;;;24.12;42.54;95070.69;4989134;28;20236;-76
2023/10/13 10:08:34;;;;;;;4.10;2.50;;;;;;;24.18;41.03;95071.84;5042051;28;20207;-77
2023/10/13 10:11:34;;;;;;;4.68;2.00;;;;;;;24.58;40.51;95069.63;5072934;28;20233;-78
2023/10/13 10:14:12;;;;;;;5.65;2.58;;;;;;;24.48;39.33;95065.72;5022589;28;20208;-77
2023/10/13 10:16:49;;;;;;;2.55;1.92;;;;;;;25.11;39.77;95058.13;5052717;28;20199;-76
2023/10/13 10:19:16;;;;;;;3.28;1.90;;;;;;;25.33;38.88;95058.72;5052751;28;20651;-78
2023/10/13 10:21:43;;;;;;;3.80;2.53;;;;;;;25.28;38.06;95051.63;5062628;28;20399;-78
2023/10/13 10:24:24;;;;;;;2.65;1.73;;;;;;;25.27;38.35;95052.84;5055937;28;20306;-78
2023/10/13 10:26:57;;;;;;;2.67;1.63;;;;;;;25.70;37.41;95049.59;5065175;28;20574;-81
2023/10/13 10:29:25;;;;;;;1.95;1.40;;;;;;;25.99;36.02;95042.50;5066667;28;20207;-78
2023/10/13 10:31:53;;;;;;;2.30;1.27;;;;;;;26.22;35.74;95035.47;5052462;28;20598;-77
2023/10/13 10:34:21;;;;;;;3.25;1.27;;;;;;;26.33;35.53;95042.47;5052787;28;20208;-77
2023/10/13 10:36:55;;;;;;;2.08;1.40;;;;;;;25.67;35.49;95045.69;5038821;28;20200;-78
2023/10/13 10:39:35;;;;;;;2.70;0.93;;;;;;;25.94;35.51;95048.53;5052204;28;20290;-78
2023/10/13 10:42:17;;;;;;;1.77;0.85;;;;;;;26.11;33.55;95044.72;5069708;28;20207;-78
2023/10/13 10:44:47;;;;;;;0.93;0.80;;;;;;;26.02;34.24;95033.34;5059242;28;20214;-78
2023/10/13 10:47:19;;;;;;;1.38;0.90;;;;;;;26.31;34.23;95032.97;5052165;28;20703;-77
2023/10/13 10:49:46;;;;;;;2.15;0.85;;;;;;;26.45;34.30;95032.75;5065489;28;20206;-77
2023/10/13 10:52:19;;;;;;;1.05;0.77;;;;;;;25.80;34.64;95038.38;5051992;28;20253;-77
2023/10/13 10:54:51;;;;;;;1.67;1.10;;;;;;;25.70;35.27;95032.94;5052074;28;20200;-77
2023/10/13 10:57:18;;;;;;;1.40;1.00;;;;;;;25.86;35.17;95035.91;5052065;28;20199;-77
2023/10/13 10:59:48;;;;;;;2.45;1.00;;;;;;;25.32;35.45;95032.94;5053817;28;20207;-78
2023/10/13 11:02:25;;;;;;;1.05;0.73;;;;;;;25.39;35.62;95037.66;5072278;28;20215;-78
2023/10/13 11:04:53;;;;;;;1.50;0.90;;;;;;;25.45;35.83;95039.53;5059040;28;20210;-77
2023/10/13 11:07:25;;;;;;;1.50;1.10;;;;;;;25.03;36.60;95038.00;5071742;28;20303;-79
2023/10/13 11:10:06;;;;;;;1.42;0.95;;;;;;;24.74;36.14;95023.56;5058161;28;20232;-79
2023/10/13 11:12:34;;;;;;;0.98;0.77;;;;;;;25.05;36.16;95020.94;5071857;28;20207;-80
2023/10/13 11:15:12;;;;;;;1.48;0.93;;;;;;;25.19;35.85;95026.34;5063059;28;20261;-77
2023/10/13 11:17:43;;;;;;;1.25;0.93;;;;;;;25.18;36.54;95024.78;5054187;28;20243;-78
2023/10/13 11:20:16;;;;;;;2.78;1.98;;;;;;;25.29;35.59;95011.59;5061008;28;20249;-78
2023/10/13 11:22:47;;;;;;;1.70;0.98;;;;;;;25.25;35.50;95019.19;5069190;28;20203;-77
2023/10/13 11:25:25;;;;;;;1.08;0.98;;;;;;;24.96;35.93;95009.56;5072191;28;20242;-78
2023/10/13 11:27:58;;;;;;;0.95;0.82;;;;;;;25.21;35.86;95010.09;5069969;28;20215;-78
2023/10/13 11:30:29;;;;;;;1.90;1.20;;;;;;;25.27;35.66;95016.78;5058357;28;20223;-78
2023/10/13 11:33:02;;;;;;;1.17;0.80;;;;;;;25.37;35.78;95004.78;5071248;28;20681;-76
2023/10/13 11:35:48;;;;;;;1.58;1.05;;;;;;;25.73;35.39;94998.81;5064249;28;20258;-78
2023/10/13 11:38:25;;;;;;;1.15;0.80;;;;;;;25.51;34.81;95001.03;5057686;28;20217;-78
2023/10/13 11:41:06;;;;;;;1.67;0.90;;;;;;;25.65;35.69;95002.91;5071325;28;20636;-78
2023/10/13 11:43:39;;;;;;;1.60;1.00;;;;;;;25.37;35.82;94996.44;5068218;28;20261;-78
2023/10/13 11:46:14;;;;;;;1.38;0.88;;;;;;;25.58;35.61;95000.16;5061917;28;20677;-77
2023/10/13 11:48:42;;;;;;;1.77;1.02;;;;;;;26.01;35.03;94981.78;5065737;28;20203;-77
2023/10/13 11:51:17;;;;;;;3.13;1.10;;;;;;;26.29;34.23;94990.94;5061863;28;20643;-77
2023/10/13 11:53:47;;;;;;;4.32;1.83;;;;;;;26.07;34.23;94996.78;5064159;28;20541;-77
2023/10/13 11:56:17;;;;;;;1.25;0.90;;;;;;;25.82;34.07;94986.03;5051194;28;20188;-78
2023/10/13 11:58:45;;;;;;;3.15;1.05;;;;;;;25.60;34.42;94989.44;5050662;28;20208;-77
2023/10/13 12:01:21;;;;;;;2.20;1.27;;;;;;;25.46;35.41;94984.84;5050971;28;20219;-77
2023/10/13 12:06:46;;;;;;;0.85;0.50;;;;;;;25.54;34.03;94980.00;5064714;28;20817;-79
2023/10/13 12:09:32;;;;;;;0.80;0.77;;;;;;;25.61;33.80;94979.91;5051083;28;20307;-77
2023/10/13 12:12:02;;;;;;;1.13;1.00;;;;;;;25.84;34.50;94960.59;5050741;28;20204;-76
2023/10/13 12:14:37;;;;;;;0.60;0.60;;;;;;;25.80;33.73;94959.88;5049540;28;20222;-76
2023/10/13 12:17:10;;;;;;;2.15;1.08;;;;;;;25.87;33.83;94965.31;5050305;28;20246;-76
2023/10/13 12:19:38;;;;;;;0.75;0.60;;;;;;;25.92;33.84;94962.09;5050809;28;20234;-76
2023/10/13 12:22:08;;;;;;;0.77;0.77;;;;;;;25.64;33.78;94970.78;5050921;28;20215;-77
2023/10/13 12:24:42;;;;;;;0.80;0.70;;;;;;;25.58;33.44;94969.63;5051057;28;20203;-76
2023/10/13 12:27:19;;;;;;;1.63;1.40;;;;;;;25.81;33.71;94961.44;5050903;28;20227;-76
2023/10/13 12:29:47;;;;;;;1.00;0.88;;;;;;;25.85;34.15;94962.16;5050705;28;20286;-76
2023/10/13 12:32:21;;;;;;;1.35;0.98;;;;;;;25.18;34.12;94958.22;5050553;28;20219;-76
2023/10/13 12:35:17;;;;;;;0.93;0.60;;;;;;;25.37;34.52;94954.84;5049007;28;20634;-76
2023/10/13 12:38:04;;;;;;;1.65;1.10;;;;;;;25.28;34.30;94954.56;5038941;28;20196;-77
2023/10/13 12:49:04;;;;;;;1.38;0.80;;;;;;;24.94;34.54;94951.75;5064775;28;20707;-83
2023/10/13 12:51:51;;;;;;;0.60;0.60;;;;;;;25.12;34.56;94948.81;5050652;28;20207;-78
2023/10/13 12:54:23;;;;;;;1.38;0.85;;;;;;;25.44;34.27;94943.66;5050440;28;20211;-77
2023/10/13 12:56:56;;;;;;;1.38;0.80;;;;;;;25.56;34.23;94945.06;5050331;28;20620;-77
2023/10/13 12:59:26;;;;;;;1.00;0.90;;;;;;;25.62;34.21;94948.22;5050911;28;20710;-78
2023/10/13 13:01:53;;;;;;;1.65;1.10;;;;;;;25.41;34.12;94944.50;5050941;28;20203;-78
2023/10/13 13:04:22;;;;;;;2.08;0.90;;;;;;;25.28;33.88;94940.69;5050410;28;20206;-78
2023/10/13 13:06:49;;;;;;;1.23;1.00;;;;;;;25.42;34.23;94937.72;5050253;28;20236;-78
2023/10/13 13:09:25;;;;;;;1.90;0.80;;;;;;;25.27;34.51;94941.91;5064226;28;20207;-77
2023/10/13 13:11:52;;;;;;;2.40;0.73;;;;;;;25.16;34.50;94938.44;5070001;28;20210;-76
2023/10/13 13:14:19;;;;;;;1.20;0.70;;;;;;;25.11;34.57;94942.47;5054648;28;20211;-77
2023/10/13 13:16:48;;;;;;;0.85;0.73;;;;;;;25.04;34.90;94941.75;5049602;28;20207;-76
2023/10/13 13:19:24;;;;;;;0.85;0.60;;;;;;;25.12;34.54;94937.72;5049985;28;20204;-75
2023/10/13 13:21:52;;;;;;;0.75;0.73;;;;;;;25.14;34.34;94941.66;5049331;28;20203;-77
2023/10/13 13:24:23;;;;;;;1.75;0.93;;;;;;;25.09;34.03;94949.63;5050308;28;20657;-74
2023/10/13 13:26:54;;;;;;;1.30;0.85;;;;;;;24.99;34.79;94945.00;5049631;28;20220;-76
2023/10/13 13:29:21;;;;;;;1.48;0.82;;;;;;;24.94;34.69;94945.44;5050248;28;20226;-75
2023/10/13 13:31:48;;;;;;;1.08;0.98;;;;;;;24.88;35.22;94938.72;5050220;28;20212;-75
2023/10/13 13:34:15;;;;;;;2.75;0.85;;;;;;;24.95;35.29;94938.69;5049682;28;20219;-76
2023/10/13 13:36:44;;;;;;;1.48;1.00;;;;;;;24.89;35.46;94940.28;5049359;28;20199;-76
2023/10/13 13:39:17;;;;;;;1.58;0.85;;;;;;;24.92;35.79;94939.47;5057140;28;20227;-75
2023/10/13 13:41:44;;;;;;;1.65;0.93;;;;;;;25.04;34.90;94936.19;5070055;28;20207;-77
2023/10/13 13:44:15;;;;;;;0.90;0.90;;;;;;;24.98;35.69;94941.44;5073989;28;20226;-77
2023/10/13 13:46:42;;;;;;;1.00;0.90;;;;;;;24.96;35.42;94940.25;5071456;28;20222;-77
2023/10/13 13:49:17;;;;;;;2.13;0.82;;;;;;;24.91;36.07;94940.66;5053325;28;20211;-75
2023/10/13 13:51:51;;;;;;;1.83;0.77;;;;;;;24.94;34.93;94948.19;5052616;28;20290;-75
2023/10/13 13:54:20;;;;;;;2.10;1.20;;;;;;;24.99;35.07;94945.00;5051606;28;20266;-75
2023/10/13 13:56:48;;;;;;;2.22;0.88;;;;;;;24.97;35.10;94952.94;5053139;28;20626;-75
2023/10/13 13:59:19;;;;;;;2.92;1.00;;;;;;;24.84;35.40;94949.06;5052848;28;20208;-75
2023/10/13 14:01:47;;;;;;;1.20;1.08;;;;;;;24.84;35.61;94949.06;5059251;28;20281;-75
2023/10/13 14:04:17;;;;;;;1.00;0.90;;;;;;;24.78;35.79;94951.50;5072781;28;20207;-76
2023/10/13 14:09:36;;;;;;;3.45;1.42;;;;;;;24.64;36.21;94949.63;5072839;28;20210;-82